sensor_id;sensor_type;location;lat;lon;timestamp;pressure;altitude;pressure_sealevel;temperature;humidity
44140;BME280;29803;51.048;4.686;2023-02-03T00:01:20;102669.59;;;8.90;100.00
44140;BME280;29803;51.048;4.686;2023-02-03T00:03:52;102650.94;;;8.88;100.00
44140;BME280;29803;51.048;4.686;2023-02-03T00:06:22;102653.84;;;8.85;100.00
44140;BME280;29803;51.048;4.686;2023-02-03T00:08:55;102645.81;;;8.85;100.00
44140;BME280;29803;51.048;4.686;2023-02-03T00:11:29;102639.38;;;8.88;100.00
44140;BME280;29803;51.048;4.686;2023-02-03T00:14:00;102642.06;;;8.88;100.00
44140;BME280;29803;51.048;4.686;2023-02-03T00:16:30;102633.09;;;8.89;100.00
44140;BME280;29803;51.048;4.686;2023-02-03T00:19:01;102635.75;;;8.89;100.00
44140;BME280;29803;51.048;4.686;2023-02-03T00:21:31;102635.84;;;8.87;100.00
44140;BME280;29803;51.048;4.686;2023-02-03T00:24:02;102635.00;;;8.87;100.00
44140;BME280;29803;51.048;4.686;2023-02-03T00:26:33;102628.59;;;8.89;100.00
44140;BME280;29803;51.048;4.686;2023-02-03T00:29:03;102627.94;;;8.86;100.00
44140;BME280;29803;51.048;4.686;2023-02-03T00:31:34;102641.53;;;8.82;100.00
44140;BME280;29803;51.048;4.686;2023-02-03T00:34:04;102648.38;;;8.87;100.00
44140;BME280;29803;51.048;4.686;2023-02-03T00:36:35;102659.94;;;8.87;100.00
44140;BME280;29803;51.048;4.686;2023-02-03T00:39:06;102671.63;;;8.86;100.00
44140;BME280;29803;51.048;4.686;2023-02-03T00:41:36;102672.47;;;8.87;100.00
44140;BME280;29803;51.048;4.686;2023-02-03T00:44:07;102664.56;;;8.85;100.00
44140;BME280;29803;51.048;4.686;2023-02-03T00:46:37;102661.13;;;8.83;100.00
44140;BME280;29803;51.048;4.686;2023-02-03T00:49:08;102676.44;;;8.81;100.00
44140;BME280;29803;51.048;4.686;2023-02-03T00:51:39;102678.78;;;8.86;100.00
44140;BME280;29803;51.048;4.686;2023-02-03T00:54:09;102684.03;;;8.87;100.00
44140;BME280;29803;51.048;4.686;2023-02-03T00:56:40;102676.84;;;8.88;100.00
44140;BME280;29803;51.048;4.686;2023-02-03T00:59:10;102673.31;;;8.87;100.00
44140;BME280;29803;51.048;4.686;2023-02-03T01:01:41;102686.94;;;8.84;100.00
44140;BME280;29803;51.048;4.686;2023-02-03T01:04:11;102695.91;;;8.83;100.00
44140;BME280;29803;51.048;4.686;2023-02-03T01:06:42;102704.38;;;8.90;100.00
44140;BME280;29803;51.048;4.686;2023-02-03T01:09:13;102706.41;;;8.99;100.00
44140;BME280;29803;51.048;4.686;2023-02-03T01:11:43;102713.53;;;8.98;100.00
44140;BME280;29803;51.048;4.686;2023-02-03T01:14:13;102702.75;;;9.00;100.00
44140;BME280;29803;51.048;4.686;2023-02-03T01:16:44;102704.34;;;9.02;100.00
44140;BME280;29803;51.048;4.686;2023-02-03T01:19:14;102696.44;;;9.01;100.00
44140;BME280;29803;51.048;4.686;2023-02-03T01:21:46;102701.13;;;8.97;100.00
44140;BME280;29803;51.048;4.686;2023-02-03T01:24:16;102700.53;;;8.94;100.00
44140;BME280;29803;51.048;4.686;2023-02-03T01:26:47;102706.41;;;8.99;100.00
44140;BME280;29803;51.048;4.686;2023-02-03T01:29:17;102695.91;;;8.96;100.00
44140;BME280;29803;51.048;4.686;2023-02-03T01:31:48;102710.88;;;8.98;100.00
44140;BME280;29803;51.048;4.686;2023-02-03T01:34:18;102703.81;;;8.97;100.00
44140;BME280;29803;51.048;4.686;2023-02-03T01:36:49;102715.28;;;8.99;100.00
44140;BME280;29803;51.048;4.686;2023-02-03T01:39:19;102723.59;;;9.07;100.00
44140;BME280;29803;51.048;4.686;2023-02-03T01:41:50;102727.88;;;9.10;100.00
44140;BME280;29803;51.048;4.686;2023-02-03T01:44:38;102713.97;;;9.05;100.00
44140;BME280;29803;51.048;4.686;2023-02-03T01:47:14;102718.25;;;9.07;100.00
44140;BME280;29803;51.048;4.686;2023-02-03T01:50:02;102713.97;;;9.05;100.00
44140;BME280;29803;51.048;4.686;2023-02-03T01:52:37;102718.56;;;9.03;100.00
44140;BME280;29803;51.048;4.686;2023-02-03T01:55:13;102718.69;;;9.01;100.00
44140;BME280;29803;51.048;4.686;2023-02-03T01:57:51;102705.63;;;8.97;100.00
44140;BME280;29803;51.048;4.686;2023-02-03T02:00:23;102703.94;;;8.96;100.00
44140;BME280;29803;51.048;4.686;2023-02-03T02:02:54;102709.16;;;8.97;100.00
44140;BME280;29803;51.048;4.686;2023-02-03T02:05:45;102700.53;;;8.94;100.00
44140;BME280;29803;51.048;4.686;2023-02-03T02:08:19;102710.34;;;8.93;100.00
44140;BME280;29803;51.048;4.686;2023-02-03T02:10:52;102702.31;;;8.93;100.00
44140;BME280;29803;51.048;4.686;2023-02-03T02:13:23;102712.28;;;8.91;100.00
44140;BME280;29803;51.048;4.686;2023-02-03T02:22:15;102682.19;;;8.88;100.00
44140;BME280;29803;51.048;4.686;2023-02-03T02:27:56;102662.28;;;8.92;100.00
44140;BME280;29803;51.048;4.686;2023-02-03T02:33:41;102663.91;;;8.94;100.00
44140;BME280;29803;51.048;4.686;2023-02-03T02:36:31;102657.69;;;8.94;100.00
44140;BME280;29803;51.048;4.686;2023-02-03T02:39:12;102657.91;;;8.91;100.00
44140;BME280;29803;51.048;4.686;2023-02-03T02:41:51;102658.97;;;8.88;100.00
44140;BME280;29803;51.048;4.686;2023-02-03T02:44:32;102648.38;;;8.87;100.00
44140;BME280;29803;51.048;4.686;2023-02-03T02:47:09;102648.25;;;8.88;100.00
44140;BME280;29803;51.048;4.686;2023-02-03T02:49:45;102660.59;;;8.91;100.00
44140;BME280;29803;51.048;4.686;2023-02-03T02:52:28;102669.25;;;8.94;100.00
44140;BME280;29803;51.048;4.686;2023-02-03T02:55:04;102655.97;;;8.93;100.00
44140;BME280;29803;51.048;4.686;2023-02-03T02:57:38;102663.78;;;8.96;100.00
44140;BME280;29803;51.048;4.686;2023-02-03T03:00:11;102672.88;;;8.93;100.00
44140;BME280;29803;51.048;4.686;2023-02-03T03:02:41;102665.94;;;8.91;100.00
44140;BME280;29803;51.048;4.686;2023-02-03T03:05:12;102659.28;;;8.96;100.00
44140;BME280;29803;51.048;4.686;2023-02-03T03:07:47;102645.16;;;8.94;100.00
44140;BME280;29803;51.048;4.686;2023-02-03T03:10:24;102661.31;;;8.93;100.00
44140;BME280;29803;51.048;4.686;2023-02-03T03:13:01;102667.75;;;8.90;100.00
44140;BME280;29803;51.048;4.686;2023-02-03T03:15:35;102675.53;;;8.93;100.00
44140;BME280;29803;51.048;4.686;2023-02-03T03:18:13;102679.97;;;8.94;100.00
44140;BME280;29803;51.048;4.686;2023-02-03T03:20:46;102692.59;;;8.92;100.00
44140;BME280;29803;51.048;4.686;2023-02-03T03:23:24;102693.69;;;8.90;100.00
44140;BME280;29803;51.048;4.686;2023-02-03T03:26:03;102697.31;;;8.89;100.00
44140;BME280;29803;51.048;4.686;2023-02-03T03:28:43;102693.75;;;8.88;100.00
44140;BME280;29803;51.048;4.686;2023-02-03T03:31:17;102693.34;;;8.94;100.00
44140;BME280;29803;51.048;4.686;2023-02-03T03:33:49;102677.03;;;8.97;100.00
44140;BME280;29803;51.048;4.686;2023-02-03T03:36:39;102675.66;;;8.92;100.00
44140;BME280;29803;51.048;4.686;2023-02-03T03:39:19;102682.72;;;8.93;100.00
44140;BME280;29803;51.048;4.686;2023-02-03T03:44:32;102702.22;;;8.95;100.00
44140;BME280;29803;51.048;4.686;2023-02-03T03:50:12;102692.81;;;8.89;100.00
44140;BME280;29803;51.048;4.686;2023-02-03T03:52:46;102679.31;;;8.91;100.00
44140;BME280;29803;51.048;4.686;2023-02-03T03:55:19;102666.91;;;8.90;100.00
44140;BME280;29803;51.048;4.686;2023-02-03T03:57:55;102680.16;;;8.91;100.00
44140;BME280;29803;51.048;4.686;2023-02-03T04:00:31;102674.59;;;8.94;100.00
44140;BME280;29803;51.048;4.686;2023-02-03T04:03:07;102672.13;;;8.91;100.00
44140;BME280;29803;51.048;4.686;2023-02-03T04:05:41;102660.69;;;8.89;100.00
44140;BME280;29803;51.048;4.686;2023-02-03T04:08:12;102655.34;;;8.89;100.00
44140;BME280;29803;51.048;4.686;2023-02-03T04:10:43;102663.72;;;8.85;100.00
44140;BME280;29803;51.048;4.686;2023-02-03T04:13:13;102657.38;;;8.86;100.00
44140;BME280;29803;51.048;4.686;2023-02-03T04:15:45;102651.06;;;8.87;100.00
44140;BME280;29803;51.048;4.686;2023-02-03T04:18:16;102658.25;;;8.86;100.00
44140;BME280;29803;51.048;4.686;2023-02-03T04:20:46;102666.78;;;8.91;100.00
44140;BME280;29803;51.048;4.686;2023-02-03T04:23:17;102660.78;;;8.88;100.00
44140;BME280;29803;51.048;4.686;2023-02-03T04:25:47;102667.00;;;8.88;100.00
44140;BME280;29803;51.048;4.686;2023-02-03T04:28:18;102668.81;;;8.88;100.00
44140;BME280;29803;51.048;4.686;2023-02-03T04:30:48;102662.72;;;8.86;100.00
44140;BME280;29803;51.048;4.686;2023-02-03T04:33:19;102665.63;;;8.82;100.00
44140;BME280;29803;51.048;4.686;2023-02-03T04:35:49;102656.66;;;8.84;100.00
44140;BME280;29803;51.048;4.686;2023-02-03T04:38:20;102647.84;;;8.81;100.00
44140;BME280;29803;51.048;4.686;2023-02-03T04:40:50;102657.72;;;8.81;100.00
44140;BME280;29803;51.048;4.686;2023-02-03T04:43:21;102665.75;;;8.81;100.00
44140;BME280;29803;51.048;4.686;2023-02-03T04:45:51;102670.75;;;8.86;100.00
44140;BME280;29803;51.048;4.686;2023-02-03T04:48:22;102674.16;;;8.88;100.00
44140;BME280;29803;51.048;4.686;2023-02-03T04:50:52;102678.22;;;8.93;100.00
44140;BME280;29803;51.048;4.686;2023-02-03T04:53:23;102658.97;;;8.88;100.00
44140;BME280;29803;51.048;4.686;2023-02-03T04:55:53;102669.66;;;8.88;100.00
44140;BME280;29803;51.048;4.686;2023-02-03T04:58:24;102684.03;;;8.87;100.00
44140;BME280;29803;51.048;4.686;2023-02-03T05:00:56;102682.31;;;8.86;100.00
44140;BME280;29803;51.048;4.686;2023-02-03T05:03:26;102676.13;;;8.86;100.00
44140;BME280;29803;51.048;4.686;2023-02-03T05:05:57;102678.78;;;8.86;100.00
44140;BME280;29803;51.048;4.686;2023-02-03T05:08:28;102676.31;;;8.82;100.00
44140;BME280;29803;51.048;4.686;2023-02-03T05:10:59;102665.81;;;8.92;100.00
44140;BME280;29803;51.048;4.686;2023-02-03T05:13:30;102668.63;;;8.91;100.00
44140;BME280;29803;51.048;4.686;2023-02-03T05:16:01;102657.91;;;8.91;100.00
44140;BME280;29803;51.048;4.686;2023-02-03T05:18:31;102665.28;;;8.87;100.00
44140;BME280;29803;51.048;4.686;2023-02-03T05:21:02;102656.53;;;8.85;100.00
44140;BME280;29803;51.048;4.686;2023-02-03T05:23:32;102653.00;;;8.85;100.00
44140;BME280;29803;51.048;4.686;2023-02-03T05:26:03;102663.25;;;8.91;100.00
44140;BME280;29803;51.048;4.686;2023-02-03T05:28:34;102664.09;;;8.91;100.00
44140;BME280;29803;51.048;4.686;2023-02-03T05:31:04;102671.50;;;8.88;100.00
44140;BME280;29803;51.048;4.686;2023-02-03T05:33:35;102671.63;;;8.86;100.00
44140;BME280;29803;51.048;4.686;2023-02-03T05:36:06;102682.31;;;8.86;100.00
44140;BME280;29803;51.048;4.686;2023-02-03T05:38:36;102686.72;;;8.87;100.00
44140;BME280;29803;51.048;4.686;2023-02-03T05:41:09;102704.25;;;8.91;100.00
44140;BME280;29803;51.048;4.686;2023-02-03T05:43:59;102696.34;;;8.90;100.00
44140;BME280;29803;51.048;4.686;2023-02-03T05:46:30;102701.78;;;8.88;100.00
44140;BME280;29803;51.048;4.686;2023-02-03T05:49:00;102699.63;;;8.93;100.00
44140;BME280;29803;51.048;4.686;2023-02-03T05:51:30;102691.00;;;8.90;100.00
44140;BME280;29803;51.048;4.686;2023-02-03T05:54:01;102701.06;;;8.86;100.00
44140;BME280;29803;51.048;4.686;2023-02-03T05:56:31;102703.63;;;8.88;100.00
44140;BME280;29803;51.048;4.686;2023-02-03T05:59:03;102694.53;;;8.90;100.00
44140;BME280;29803;51.048;4.686;2023-02-03T06:01:34;102691.00;;;8.90;100.00
44140;BME280;29803;51.048;4.686;2023-02-03T06:04:05;102688.31;;;8.90;100.00
44140;BME280;29803;51.048;4.686;2023-02-03T06:06:35;102690.66;;;8.94;100.00
44140;BME280;29803;51.048;4.686;2023-02-03T06:09:07;102687.22;;;8.92;100.00
44140;BME280;29803;51.048;4.686;2023-02-03T06:11:37;102695.25;;;8.92;100.00
44140;BME280;29803;51.048;4.686;2023-02-03T06:14:08;102698.06;;;8.91;100.00
44140;BME280;29803;51.048;4.686;2023-02-03T06:16:38;102700.84;;;8.89;100.00
44140;BME280;29803;51.048;4.686;2023-02-03T06:19:09;102709.63;;;8.91;100.00
44140;BME280;29803;51.048;4.686;2023-02-03T06:21:39;102711.22;;;8.94;100.00
44140;BME280;29803;51.048;4.686;2023-02-03T06:24:10;102705.44;;;8.87;100.00
44140;BME280;29803;51.048;4.686;2023-02-03T06:26:40;102707.16;;;8.88;100.00
44140;BME280;29803;51.048;4.686;2023-02-03T06:29:11;102709.81;;;8.88;100.00
44140;BME280;29803;51.048;4.686;2023-02-03T06:31:41;102708.63;;;8.92;100.00
44140;BME280;29803;51.048;4.686;2023-02-03T06:34:12;102704.66;;;8.98;100.00
44140;BME280;29803;51.048;4.686;2023-02-03T06:36:42;102706.50;;;8.97;100.00
44140;BME280;29803;51.048;4.686;2023-02-03T06:39:13;102715.50;;;8.96;100.00
44140;BME280;29803;51.048;4.686;2023-02-03T06:41:44;102707.34;;;8.98;100.00
44140;BME280;29803;51.048;4.686;2023-02-03T06:44:14;102705.63;;;8.97;100.00
44140;BME280;29803;51.048;4.686;2023-02-03T06:46:44;102716.34;;;8.97;100.00
44140;BME280;29803;51.048;4.686;2023-02-03T06:49:16;102720.97;;;8.95;100.00
44140;BME280;29803;51.048;4.686;2023-02-03T06:51:46;102721.94;;;8.94;100.00
44140;BME280;29803;51.048;4.686;2023-02-03T06:54:17;102714.63;;;8.96;100.00
44140;BME280;29803;51.048;4.686;2023-02-03T06:56:47;102704.91;;;8.95;100.00
44140;BME280;29803;51.048;4.686;2023-02-03T06:59:18;102703.09;;;8.95;100.00
44140;BME280;29803;51.048;4.686;2023-02-03T07:01:48;102707.97;;;9.01;100.00
44140;BME280;29803;51.048;4.686;2023-02-03T07:04:19;102708.84;;;9.02;100.00
44140;BME280;29803;51.048;4.686;2023-02-03T07:06:49;102708.63;;;9.05;100.00
44140;BME280;29803;51.048;4.686;2023-02-03T07:09:20;102710.53;;;9.03;100.00
44140;BME280;29803;51.048;4.686;2023-02-03T07:11:50;102693.75;;;9.01;100.00
44140;BME280;29803;51.048;4.686;2023-02-03T07:14:21;102694.59;;;9.01;100.00
44140;BME280;29803;51.048;4.686;2023-02-03T07:16:51;102689.97;;;9.03;100.00
44140;BME280;29803;51.048;4.686;2023-02-03T07:19:23;102688.19;;;9.04;100.00
44140;BME280;29803;51.048;4.686;2023-02-03T07:21:54;102687.94;;;9.07;100.00
44140;BME280;29803;51.048;4.686;2023-02-03T07:24:24;102682.59;;;9.07;100.00
44140;BME280;29803;51.048;4.686;2023-02-03T07:26:55;102695.75;;;9.10;100.00
44140;BME280;29803;51.048;4.686;2023-02-03T07:29:26;102697.59;;;9.10;100.00
44140;BME280;29803;51.048;4.686;2023-02-03T07:31:56;102697.34;;;9.13;100.00
44140;BME280;29803;51.048;4.686;2023-02-03T07:34:27;102706.53;;;9.21;100.00
44140;BME280;29803;51.048;4.686;2023-02-03T07:36:58;102701.19;;;9.21;100.00
44140;BME280;29803;51.048;4.686;2023-02-03T07:39:30;102710.19;;;9.20;100.00
44140;BME280;29803;51.048;4.686;2023-02-03T07:42:00;102709.22;;;9.21;100.00
44140;BME280;29803;51.048;4.686;2023-02-03T07:44:31;102709.00;;;9.24;100.00
44140;BME280;29803;51.048;4.686;2023-02-03T07:47:01;102716.19;;;9.24;100.00
44140;BME280;29803;51.048;4.686;2023-02-03T07:49:32;102725.06;;;9.24;100.00
44140;BME280;29803;51.048;4.686;2023-02-03T07:52:02;102713.25;;;9.27;100.00
44140;BME280;29803;51.048;4.686;2023-02-03T07:54:33;102720.56;;;9.25;100.00
44140;BME280;29803;51.048;4.686;2023-02-03T07:57:03;102724.22;;;9.24;100.00
44140;BME280;29803;51.048;4.686;2023-02-03T07:59:34;102723.25;;;9.25;100.00
44140;BME280;29803;51.048;4.686;2023-02-03T08:02:04;102739.41;;;9.23;100.00
44140;BME280;29803;51.048;4.686;2023-02-03T08:04:35;102741.41;;;9.32;100.00
44140;BME280;29803;51.048;4.686;2023-02-03T08:07:05;102731.16;;;9.26;100.00
44140;BME280;29803;51.048;4.686;2023-02-03T08:09:36;102734.69;;;9.27;100.00
44140;BME280;29803;51.048;4.686;2023-02-03T08:12:07;102746.16;;;9.29;100.00
44140;BME280;29803;51.048;4.686;2023-02-03T08:14:37;102761.47;;;9.27;100.00
44140;BME280;29803;51.048;4.686;2023-02-03T08:17:08;102764.91;;;9.29;100.00
44140;BME280;29803;51.048;4.686;2023-02-03T08:19:38;102749.47;;;9.32;100.00
44140;BME280;29803;51.048;4.686;2023-02-03T08:22:09;102751.06;;;9.35;100.00
44140;BME280;29803;51.048;4.686;2023-02-03T08:24:46;102754.28;;;9.40;100.00
44140;BME280;29803;51.048;4.686;2023-02-03T08:27:20;102767.66;;;9.40;100.00
44140;BME280;29803;51.048;4.686;2023-02-03T08:29:51;102767.34;;;9.45;100.00
44140;BME280;29803;51.048;4.686;2023-02-03T08:32:21;102750.06;;;9.49;100.00
44140;BME280;29803;51.048;4.686;2023-02-03T08:34:52;102759.69;;;9.51;100.00
44140;BME280;29803;51.048;4.686;2023-02-03T08:37:23;102752.84;;;9.47;100.00
44140;BME280;29803;51.048;4.686;2023-02-03T08:39:54;102764.31;;;9.49;100.00
44140;BME280;29803;51.048;4.686;2023-02-03T08:42:25;102774.78;;;9.52;100.00
44140;BME280;29803;51.048;4.686;2023-02-03T08:44:55;102773.81;;;9.53;100.00
44140;BME280;29803;51.048;4.686;2023-02-03T08:47:26;102781.00;;;9.53;100.00
44140;BME280;29803;51.048;4.686;2023-02-03T08:49:57;102771.84;;;9.44;100.00
44140;BME280;29803;51.048;4.686;2023-02-03T08:52:27;102789.38;;;9.48;100.00
44140;BME280;29803;51.048;4.686;2023-02-03T08:54:58;102791.00;;;9.51;100.00
44140;BME280;29803;51.048;4.686;2023-02-03T08:57:47;102795.50;;;9.50;100.00
44140;BME280;29803;51.048;4.686;2023-02-03T09:00:18;102802.22;;;9.56;100.00
44140;BME280;29803;51.048;4.686;2023-02-03T09:02:49;102811.00;;;9.58;100.00
44140;BME280;29803;51.048;4.686;2023-02-03T09:05:19;102802.75;;;9.61;100.00
44140;BME280;29803;51.048;4.686;2023-02-03T09:07:50;102810.06;;;9.59;100.00
44140;BME280;29803;51.048;4.686;2023-02-03T09:10:20;102815.84;;;9.53;100.00
44140;BME280;29803;51.048;4.686;2023-02-03T09:12:51;102817.44;;;9.55;100.00
44140;BME280;29803;51.048;4.686;2023-02-03T09:15:21;102823.88;;;9.53;100.00
44140;BME280;29803;51.048;4.686;2023-02-03T09:17:52;102834.72;;;9.51;100.00
44140;BME280;29803;51.048;4.686;2023-02-03T09:20:24;102834.91;;;9.48;100.00
44140;BME280;29803;51.048;4.686;2023-02-03T09:22:57;102833.00;;;9.50;100.00
44140;BME280;29803;51.048;4.686;2023-02-03T09:25:28;102827.84;;;9.60;100.00
44140;BME280;29803;51.048;4.686;2023-02-03T09:28:00;102824.19;;;9.61;100.00
44140;BME280;29803;51.048;4.686;2023-02-03T09:30:32;102825.75;;;9.64;100.00
44140;BME280;29803;51.048;4.686;2023-02-03T09:33:02;102838.22;;;9.65;100.00
44140;BME280;29803;51.048;4.686;2023-02-03T09:35:33;102839.16;;;9.64;100.00
44140;BME280;29803;51.048;4.686;2023-02-03T09:38:03;102835.88;;;9.60;100.00
44140;BME280;29803;51.048;4.686;2023-02-03T09:40:35;102833.81;;;9.64;100.00
44140;BME280;29803;51.048;4.686;2023-02-03T09:43:19;102828.97;;;9.69;100.00
44140;BME280;29803;51.048;4.686;2023-02-03T09:45:53;102810.44;;;9.66;100.00
44140;BME280;29803;51.048;4.686;2023-02-03T09:48:25;102817.31;;;9.70;100.00
44140;BME280;29803;51.048;4.686;2023-02-03T09:50:58;102824.25;;;9.72;100.00
44140;BME280;29803;51.048;4.686;2023-02-03T09:53:35;102821.56;;;9.72;100.00
44140;BME280;29803;51.048;4.686;2023-02-03T09:56:21;102834.84;;;9.74;100.00
44140;BME280;29803;51.048;4.686;2023-02-03T09:58:54;102836.59;;;9.75;100.00
44140;BME280;29803;51.048;4.686;2023-02-03T10:07:14;102815.00;;;9.76;100.00
44140;BME280;29803;51.048;4.686;2023-02-03T10:13:23;102832.72;;;9.79;100.00
44140;BME280;29803;51.048;4.686;2023-02-03T10:16:11;102835.66;;;9.87;100.00
44140;BME280;29803;51.048;4.686;2023-02-03T10:18:52;102839.09;;;9.89;100.00
44140;BME280;29803;51.048;4.686;2023-02-03T10:21:36;102840.69;;;9.92;100.00
44140;BME280;29803;51.048;4.686;2023-02-03T10:24:14;102842.19;;;9.96;100.00
44140;BME280;29803;51.048;4.686;2023-02-03T10:26:46;102848.69;;;10.04;100.00
44140;BME280;29803;51.048;4.686;2023-02-03T10:29:22;102853.69;;;10.09;100.00
44140;BME280;29803;51.048;4.686;2023-02-03T10:31:56;102851.63;;;10.12;100.00
44140;BME280;29803;51.048;4.686;2023-02-03T10:34:26;102859.34;;;10.17;100.00
44140;BME280;29803;51.048;4.686;2023-02-03T10:37:02;102863.84;;;10.17;100.00
44140;BME280;29803;51.048;4.686;2023-02-03T10:39:54;102864.84;;;10.16;100.00
44140;BME280;29803;51.048;4.686;2023-02-03T10:42:29;102862.88;;;10.18;100.00
44140;BME280;29803;51.048;4.686;2023-02-03T10:45:20;102863.13;;;10.15;100.00
44140;BME280;29803;51.048;4.686;2023-02-03T10:47:53;102878.25;;;10.16;100.00
44140;BME280;29803;51.048;4.686;2023-02-03T10:50:25;102884.47;;;10.16;100.00
44140;BME280;29803;51.048;4.686;2023-02-03T10:53:22;102904.09;;;10.17;100.00
44140;BME280;29803;51.048;4.686;2023-02-03T10:56:12;102893.50;;;10.15;100.00
44140;BME280;29803;51.048;4.686;2023-02-03T10:58:57;102885.66;;;10.12;100.00
44140;BME280;29803;51.048;4.686;2023-02-03T11:01:41;102879.22;;;10.15;100.00
44140;BME280;29803;51.048;4.686;2023-02-03T11:04:31;102873.72;;;10.16;100.00
44140;BME280;29803;51.048;4.686;2023-02-03T11:07:06;102866.31;;;10.20;100.00
44140;BME280;29803;51.048;4.686;2023-02-03T11:09:39;102854.75;;;10.19;100.00
44140;BME280;29803;51.048;4.686;2023-02-03T11:12:29;102855.88;;;10.28;100.00
44140;BME280;29803;51.048;4.686;2023-02-03T11:15:04;102859.84;;;10.35;100.00
44140;BME280;29803;51.048;4.686;2023-02-03T11:17:35;102858.75;;;10.37;100.00
44140;BME280;29803;51.048;4.686;2023-02-03T11:20:24;102857.56;;;10.53;100.00
44140;BME280;29803;51.048;4.686;2023-02-03T11:22:58;102849.03;;;10.59;100.00
44140;BME280;29803;51.048;4.686;2023-02-03T11:25:31;102853.97;;;10.65;100.00
44140;BME280;29803;51.048;4.686;2023-02-03T11:28:04;102847.63;;;10.66;100.00
44140;BME280;29803;51.048;4.686;2023-02-03T11:30:36;102858.25;;;10.79;100.00
44140;BME280;29803;51.048;4.686;2023-02-03T11:33:25;102849.97;;;10.82;100.00
44140;BME280;29803;51.048;4.686;2023-02-03T11:35:58;102855.56;;;10.79;100.00
44140;BME280;29803;51.048;4.686;2023-02-03T11:38:31;102838.00;;;10.75;100.00
44140;BME280;29803;51.048;4.686;2023-02-03T11:41:02;102842.97;;;10.68;100.00
44140;BME280;29803;51.048;4.686;2023-02-03T11:43:32;102847.97;;;10.61;100.00
44140;BME280;29803;51.048;4.686;2023-02-03T11:46:04;102855.28;;;10.59;100.00
44140;BME280;29803;51.048;4.686;2023-02-03T11:48:47;102848.78;;;10.51;100.00
44140;BME280;29803;51.048;4.686;2023-02-03T11:57:34;102863.97;;;10.39;100.00
44140;BME280;29803;51.048;4.686;2023-02-03T12:09:24;102875.13;;;10.46;100.00
44140;BME280;29803;51.048;4.686;2023-02-03T12:20:11;102879.34;;;10.37;100.00
44140;BME280;29803;51.048;4.686;2023-02-03T12:29:00;102876.31;;;10.42;100.00
44140;BME280;29803;51.048;4.686;2023-02-03T12:31:36;102879.50;;;10.47;100.00
44140;BME280;29803;51.048;4.686;2023-02-03T12:36:51;102865.06;;;10.60;100.00
44140;BME280;29803;51.048;4.686;2023-02-03T12:39:44;102875.53;;;10.63;100.00
44140;BME280;29803;51.048;4.686;2023-02-03T12:42:37;102866.03;;;10.59;100.00
44140;BME280;29803;51.048;4.686;2023-02-03T12:45:15;102858.06;;;10.58;100.00
44140;BME280;29803;51.048;4.686;2023-02-03T12:48:03;102867.72;;;10.60;100.00
44140;BME280;29803;51.048;4.686;2023-02-03T12:50:55;102870.28;;;10.62;100.00
44140;BME280;29803;51.048;4.686;2023-02-03T12:53:31;102855.03;;;10.62;100.00
44140;BME280;29803;51.048;4.686;2023-02-03T12:56:19;102858.84;;;10.60;100.00
44140;BME280;29803;51.048;4.686;2023-02-03T12:58:56;102855.53;;;10.68;100.00
44140;BME280;29803;51.048;4.686;2023-02-03T13:01:48;102856.75;;;10.63;100.00
44140;BME280;29803;51.048;4.686;2023-02-03T13:04:37;102847.34;;;10.69;100.00
44140;BME280;29803;51.048;4.686;2023-02-03T13:07:26;102842.41;;;10.76;100.00
44140;BME280;29803;51.048;4.686;2023-02-03T13:10:05;102835.19;;;10.76;100.00
44140;BME280;29803;51.048;4.686;2023-02-03T13:12:49;102840.56;;;10.76;100.00
44140;BME280;29803;51.048;4.686;2023-02-03T13:15:26;102844.81;;;10.79;100.00
44140;BME280;29803;51.048;4.686;2023-02-03T13:18:07;102852.78;;;10.80;100.00
44140;BME280;29803;51.048;4.686;2023-02-03T13:20:41;102838.38;;;10.81;100.00
44140;BME280;29803;51.048;4.686;2023-02-03T13:23:13;102848.97;;;10.83;100.00
44140;BME280;29803;51.048;4.686;2023-02-03T13:31:14;102861.06;;;10.88;100.00
44140;BME280;29803;51.048;4.686;2023-02-03T13:36:35;102870.75;;;10.91;100.00
44140;BME280;29803;51.048;4.686;2023-02-03T13:39:30;102871.22;;;10.85;100.00
44140;BME280;29803;51.048;4.686;2023-02-03T13:44:48;102874.25;;;10.80;100.00
44140;BME280;29803;51.048;4.686;2023-02-03T13:47:25;102871.31;;;10.83;100.00
44140;BME280;29803;51.048;4.686;2023-02-03T13:50:01;102870.72;;;10.80;100.00
44140;BME280;29803;51.048;4.686;2023-02-03T13:52:39;102873.41;;;10.80;100.00
44140;BME280;29803;51.048;4.686;2023-02-03T13:55:29;102866.06;;;10.82;100.00
44140;BME280;29803;51.048;4.686;2023-02-03T13:58:00;102868.63;;;10.83;100.00
44140;BME280;29803;51.048;4.686;2023-02-03T14:03:17;102869.97;;;10.78;100.00
44140;BME280;29803;51.048;4.686;2023-02-03T14:05:49;102869.97;;;10.78;100.00
44140;BME280;29803;51.048;4.686;2023-02-03T14:14:42;102875.47;;;10.76;100.00
44140;BME280;29803;51.048;4.686;2023-02-03T14:20:37;102893.28;;;10.77;100.00
44140;BME280;29803;51.048;4.686;2023-02-03T14:23:15;102894.63;;;10.83;100.00
44140;BME280;29803;51.048;4.686;2023-02-03T14:25:49;102898.28;;;10.82;100.00
44140;BME280;29803;51.048;4.686;2023-02-03T14:28:25;102892.94;;;10.82;100.00
44140;BME280;29803;51.048;4.686;2023-02-03T14:31:17;102890.38;;;10.80;100.00
44140;BME280;29803;51.048;4.686;2023-02-03T14:33:49;102888.66;;;10.79;100.00
44140;BME280;29803;51.048;4.686;2023-02-03T14:36:33;102901.19;;;10.79;100.00
44140;BME280;29803;51.048;4.686;2023-02-03T14:39:41;102896.81;;;10.78;100.00
44140;BME280;29803;51.048;4.686;2023-02-03T14:45:12;102903.88;;;10.79;100.00
44140;BME280;29803;51.048;4.686;2023-02-03T14:56:46;102897.16;;;10.73;100.00
44140;BME280;29803;51.048;4.686;2023-02-03T14:59:47;102902.66;;;10.72;100.00